Terminal Aerodrome Forecast
Issued by NWS Austin/San Antonio, TX

Home | Current Version | Previous Version | Text Only | Print | Product List | Glossary On
Versions: 1 2 3 4 5 6 7 8 9 10 11 12 13 14 15 16 17 18 19 20 21 22 23 24
583
FTUS44 KEWX 191736
TAFAUS
TAF
KAUS 191736Z 1918/2024 14012KT P6SM SCT100 BKN250
     FM200100 17003KT P6SM BKN050 BKN100
     FM201200 VRB02KT P6SM SCT030 OVC050=

USA.gov is the U.S. government's official web portal to all federal, state and local government web resources and services.